createdAt,value
2023-03-29T00:00:31.403Z,21.42
2023-03-29T00:03:35.013Z,21.42
2023-03-29T00:06:38.275Z,21.41
2023-03-29T00:09:42.583Z,21.42
2023-03-29T00:12:45.501Z,21.39
2023-03-29T00:15:48.389Z,21.40
2023-03-29T00:18:51.318Z,21.38
2023-03-29T00:21:54.352Z,21.36
2023-03-29T00:24:58.582Z,21.37
2023-03-29T00:28:01.549Z,21.35
2023-03-29T00:31:07.228Z,21.35
2023-03-29T00:34:10.469Z,21.33
2023-03-29T00:37:14.864Z,21.35
2023-03-29T00:40:19.806Z,21.32
2023-03-29T00:43:22.728Z,21.33
2023-03-29T00:46:27.198Z,21.33
2023-03-29T00:49:30.561Z,21.33
2023-03-29T00:52:35.661Z,21.34
2023-03-29T00:55:44.529Z,21.34
2023-03-29T00:58:53.090Z,21.32
2023-03-29T01:02:02.033Z,21.32
2023-03-29T01:05:08.479Z,21.31
2023-03-29T01:08:18.065Z,21.32
2023-03-29T01:11:28.478Z,21.31
2023-03-29T01:14:37.088Z,21.30
2023-03-29T01:17:43.226Z,21.30
2023-03-29T01:21:03.326Z,21.30
2023-03-29T01:24:26.529Z,21.30
2023-03-29T01:27:47.208Z,21.30
2023-03-29T01:30:54.553Z,21.31
2023-03-29T01:34:04.622Z,21.30
2023-03-29T01:37:13.454Z,21.30
2023-03-29T01:40:16.677Z,21.30
2023-03-29T01:43:29.145Z,21.30
2023-03-29T01:46:38.668Z,21.30
2023-03-29T01:49:45.978Z,21.29
2023-03-29T01:52:54.382Z,21.29
2023-03-29T01:56:01.524Z,21.28
2023-03-29T01:59:11.607Z,21.28
2023-03-29T02:02:17.452Z,21.27
2023-03-29T02:05:24.443Z,21.27
2023-03-29T02:08:28.574Z,21.27
2023-03-29T02:11:34.624Z,21.28
2023-03-29T02:14:39.647Z,21.27
2023-03-29T02:17:44.812Z,21.27
2023-03-29T02:20:51.594Z,21.29
2023-03-29T02:23:58.883Z,21.29
2023-03-29T02:27:02.381Z,21.29
2023-03-29T02:30:08.686Z,21.28
2023-03-29T02:33:15.697Z,21.27
2023-03-29T02:36:22.485Z,21.28
2023-03-29T02:39:27.735Z,21.27
2023-03-29T02:42:32.339Z,21.28
2023-03-29T02:45:38.258Z,21.28
2023-03-29T02:48:42.433Z,21.27
2023-03-29T02:51:48.367Z,21.27
2023-03-29T02:54:54.372Z,21.27
2023-03-29T02:57:57.366Z,21.28
2023-03-29T03:01:03.421Z,21.28
2023-03-29T03:04:06.787Z,21.28
2023-03-29T03:07:09.748Z,21.28
2023-03-29T03:10:12.884Z,21.28
2023-03-29T03:13:15.842Z,21.28
2023-03-29T03:16:20.234Z,21.29
2023-03-29T03:19:24.167Z,21.31
2023-03-29T03:22:27.094Z,21.31
2023-03-29T03:25:30.678Z,21.33
2023-03-29T03:28:33.578Z,21.34
2023-03-29T03:31:41.213Z,21.35
2023-03-29T03:34:52.254Z,21.36
2023-03-29T03:37:58.848Z,21.37
2023-03-29T03:41:03.655Z,21.38
2023-03-29T03:44:09.403Z,21.38
2023-03-29T03:47:14.749Z,21.40
2023-03-29T03:50:19.231Z,21.39
2023-03-29T03:53:22.531Z,21.39
2023-03-29T03:56:44.529Z,21.38
2023-03-29T03:59:54.277Z,21.38
2023-03-29T04:03:06.069Z,21.37
2023-03-29T04:06:11.124Z,21.37
2023-03-29T04:09:43.487Z,21.37
2023-03-29T04:13:02.368Z,21.35
2023-03-29T04:16:07.215Z,21.34
2023-03-29T04:19:12.158Z,21.34
2023-03-29T04:22:15.484Z,21.33
2023-03-29T04:25:19.997Z,21.33
2023-03-29T04:28:22.900Z,21.32
2023-03-29T04:31:41.905Z,21.32
2023-03-29T04:34:57.546Z,21.32
2023-03-29T04:38:00.528Z,21.30
2023-03-29T04:41:05.308Z,21.30
2023-03-29T04:44:35.078Z,21.31
2023-03-29T04:47:42.107Z,21.32
2023-03-29T04:50:54.423Z,21.34
2023-03-29T04:53:57.727Z,21.36
2023-03-29T04:57:00.749Z,21.37
2023-03-29T05:00:27.206Z,21.38
2023-03-29T05:03:48.872Z,21.39
2023-03-29T05:07:03.043Z,21.41
2023-03-29T05:10:08.304Z,21.42
2023-03-29T05:13:11.304Z,21.42
2023-03-29T05:16:16.986Z,21.44
2023-03-29T05:19:21.829Z,21.44
2023-03-29T05:22:26.571Z,21.44
2023-03-29T05:25:29.578Z,21.45
2023-03-29T05:28:34.534Z,21.46
2023-03-29T05:31:39.143Z,21.44
2023-03-29T05:34:42.170Z,21.45
2023-03-29T05:37:48.112Z,21.45
2023-03-29T05:40:51.273Z,21.46
2023-03-29T05:44:23.271Z,21.46
2023-03-29T05:47:31.721Z,21.46
2023-03-29T05:50:34.640Z,21.45
2023-03-29T05:53:39.186Z,21.45
2023-03-29T05:56:42.569Z,21.44
2023-03-29T05:59:45.708Z,21.44
2023-03-29T06:02:51.185Z,21.43
2023-03-29T06:06:00.508Z,21.42
2023-03-29T06:09:05.654Z,21.43
2023-03-29T06:12:21.862Z,21.41
2023-03-29T06:15:34.885Z,21.42
2023-03-29T06:18:41.610Z,21.41
2023-03-29T06:21:44.533Z,21.41
2023-03-29T06:24:52.601Z,21.42
2023-03-29T06:28:06.052Z,21.41
2023-03-29T06:31:10.445Z,21.41
2023-03-29T06:34:16.489Z,21.41
2023-03-29T06:37:41.617Z,21.41
2023-03-29T06:41:04.006Z,21.41
2023-03-29T06:44:20.756Z,21.40
2023-03-29T06:47:34.992Z,21.37
2023-03-29T06:50:38.244Z,21.32
2023-03-29T06:53:46.556Z,21.27
2023-03-29T06:56:51.577Z,21.23
2023-03-29T06:59:57.478Z,21.19
2023-03-29T07:03:14.817Z,21.15
2023-03-29T07:06:20.407Z,21.13
2023-03-29T07:09:26.181Z,21.11
2023-03-29T07:12:51.579Z,21.10
2023-03-29T07:15:54.608Z,21.07
2023-03-29T07:19:13.353Z,21.04
2023-03-29T07:22:31.328Z,21.02
2023-03-29T07:25:38.282Z,21.00
2023-03-29T07:28:43.197Z,21.05
2023-03-29T07:31:46.169Z,21.13
2023-03-29T07:35:13.556Z,21.22
2023-03-29T07:38:16.657Z,21.31
2023-03-29T07:41:24.890Z,21.37
2023-03-29T07:44:37.468Z,21.44
2023-03-29T07:47:40.663Z,21.50
2023-03-29T07:50:44.294Z,21.55
2023-03-29T07:53:47.488Z,21.58
2023-03-29T07:57:08.915Z,21.61
2023-03-29T08:00:20.109Z,21.63
2023-03-29T08:03:38.725Z,21.61
2023-03-29T08:06:43.478Z,21.62
2023-03-29T08:09:46.943Z,21.63
2023-03-29T08:12:52.380Z,21.62
2023-03-29T08:16:03.517Z,21.61
2023-03-29T08:19:11.282Z,21.60
2023-03-29T08:22:27.972Z,21.59
2023-03-29T08:26:08.606Z,21.60
2023-03-29T08:29:12.003Z,21.61
2023-03-29T08:32:16.495Z,21.63
2023-03-29T08:35:19.908Z,21.63
2023-03-29T08:38:35.490Z,21.51
2023-03-29T08:41:52.281Z,21.32
2023-03-29T08:45:07.930Z,21.19
2023-03-29T08:48:23.598Z,21.12
2023-03-29T08:51:31.385Z,21.10
2023-03-29T08:54:38.141Z,21.13
2023-03-29T08:57:49.876Z,21.18
2023-03-29T09:01:08.611Z,21.25
2023-03-29T09:04:28.073Z,21.35
2023-03-29T09:07:38.696Z,21.40
2023-03-29T09:10:47.730Z,21.45
2023-03-29T09:14:01.082Z,21.48
2023-03-29T09:17:15.199Z,21.51
2023-03-29T09:20:31.385Z,21.54
2023-03-29T09:24:11.606Z,21.58
2023-03-29T09:27:26.699Z,21.59
2023-03-29T09:30:41.550Z,21.60
2023-03-29T09:33:50.530Z,21.61
2023-03-29T09:37:04.043Z,21.62
2023-03-29T09:40:13.501Z,21.62
2023-03-29T09:43:53.397Z,21.62
2023-03-29T09:47:04.600Z,21.61
2023-03-29T09:50:27.724Z,21.61
2023-03-29T09:53:35.083Z,21.61
2023-03-29T09:56:52.608Z,21.60
2023-03-29T09:59:57.437Z,21.60
2023-03-29T10:03:00.728Z,21.59
2023-03-29T10:06:25.550Z,21.59
2023-03-29T10:09:35.049Z,21.59
2023-03-29T10:12:53.206Z,21.59
2023-03-29T10:16:03.531Z,21.58
2023-03-29T10:19:27.913Z,21.58
2023-03-29T10:22:34.680Z,21.57
2023-03-29T10:25:42.880Z,21.56
2023-03-29T10:28:46.287Z,21.55
2023-03-29T10:31:49.973Z,21.56
2023-03-29T10:34:54.044Z,21.55
2023-03-29T10:37:59.238Z,21.54
2023-03-29T10:41:10.257Z,21.55
2023-03-29T10:44:29.754Z,21.54
2023-03-29T10:47:35.231Z,21.53
2023-03-29T10:50:38.317Z,21.53
2023-03-29T10:53:41.598Z,21.50
2023-03-29T10:56:52.451Z,21.51
2023-03-29T11:00:02.461Z,21.50
2023-03-29T11:03:41.329Z,21.50
2023-03-29T11:06:51.350Z,21.49
2023-03-29T11:10:05.094Z,21.48
2023-03-29T11:13:18.395Z,21.48
2023-03-29T11:16:33.091Z,21.48
2023-03-29T11:20:05.423Z,21.48
2023-03-29T11:23:29.020Z,21.49
2023-03-29T11:26:41.976Z,21.49
2023-03-29T11:29:58.833Z,21.48
2023-03-29T11:33:14.794Z,21.48
2023-03-29T11:36:26.367Z,21.47
2023-03-29T11:39:39.444Z,21.47
2023-03-29T11:42:47.750Z,21.46
2023-03-29T11:45:56.849Z,21.46
2023-03-29T11:49:04.947Z,21.46
2023-03-29T11:52:15.305Z,21.45
2023-03-29T11:55:22.638Z,21.45
2023-03-29T11:58:31.187Z,21.46
2023-03-29T12:01:40.681Z,21.47
2023-03-29T12:04:49.599Z,21.48
2023-03-29T12:07:57.025Z,21.48
2023-03-29T12:11:07.432Z,21.50
2023-03-29T12:14:15.336Z,21.49
2023-03-29T12:17:25.315Z,21.49
2023-03-29T12:20:31.747Z,21.49
2023-03-29T12:23:36.702Z,21.49
2023-03-29T12:27:02.933Z,21.49
2023-03-29T12:30:27.354Z,21.49
2023-03-29T12:34:11.648Z,21.49
2023-03-29T12:37:47.019Z,21.50
2023-03-29T12:41:17.368Z,21.49
2023-03-29T12:44:59.443Z,21.51
2023-03-29T12:48:14.584Z,21.51
2023-03-29T12:51:21.096Z,21.51
2023-03-29T12:54:29.288Z,21.51
2023-03-29T12:57:42.098Z,21.51
2023-03-29T13:00:46.528Z,21.50
2023-03-29T13:03:52.002Z,21.50
2023-03-29T13:07:03.942Z,21.49
2023-03-29T13:10:11.617Z,21.51
2023-03-29T13:13:22.535Z,21.50
2023-03-29T13:16:32.133Z,21.50
2023-03-29T13:19:40.966Z,21.50
2023-03-29T13:22:54.988Z,21.51
2023-03-29T13:26:17.424Z,21.52
2023-03-29T13:29:52.564Z,21.52
2023-03-29T13:33:09.700Z,21.52
2023-03-29T13:36:22.540Z,21.53
2023-03-29T13:39:30.532Z,21.52
2023-03-29T13:42:41.892Z,21.52
2023-03-29T13:45:44.778Z,21.52
2023-03-29T13:48:56.117Z,21.52
2023-03-29T13:52:20.788Z,21.52
2023-03-29T13:55:30.893Z,21.52
2023-03-29T13:58:42.775Z,21.52
2023-03-29T14:01:51.638Z,21.52
2023-03-29T14:04:55.918Z,21.52
2023-03-29T14:08:06.378Z,21.52
2023-03-29T14:11:21.109Z,21.52
2023-03-29T14:14:28.169Z,21.53
2023-03-29T14:17:31.633Z,21.53
2023-03-29T14:20:34.910Z,21.52
2023-03-29T14:23:42.007Z,21.52
2023-03-29T14:26:47.742Z,21.52
2023-03-29T14:29:53.257Z,21.52
2023-03-29T14:32:56.878Z,21.51
2023-03-29T14:36:02.326Z,21.51
2023-03-29T14:39:09.345Z,21.51
2023-03-29T14:42:20.706Z,21.52
2023-03-29T14:45:25.299Z,21.52
2023-03-29T14:48:28.572Z,21.52
2023-03-29T14:51:31.722Z,21.53
2023-03-29T14:54:36.170Z,21.54
2023-03-29T14:57:39.466Z,21.53
2023-03-29T15:00:43.917Z,21.54
2023-03-29T15:03:54.830Z,21.54
2023-03-29T15:06:59.698Z,21.53
2023-03-29T15:10:05.076Z,21.53
2023-03-29T15:13:09.703Z,21.54
2023-03-29T15:16:16.831Z,21.54
2023-03-29T15:19:22.349Z,21.53
2023-03-29T15:22:25.278Z,21.50
2023-03-29T15:25:29.503Z,21.43
2023-03-29T15:28:34.720Z,21.39
2023-03-29T15:31:41.622Z,21.39
2023-03-29T15:34:46.026Z,21.39
2023-03-29T15:37:49.324Z,21.40
2023-03-29T15:40:52.232Z,21.42
2023-03-29T15:43:55.641Z,21.43
2023-03-29T15:47:00.384Z,21.43
2023-03-29T15:50:03.304Z,21.45
2023-03-29T15:53:14.734Z,21.46
2023-03-29T15:56:22.910Z,21.51
2023-03-29T15:59:26.158Z,21.49
2023-03-29T16:02:31.016Z,21.50
2023-03-29T16:05:34.083Z,21.52
2023-03-29T16:08:37.062Z,21.53
2023-03-29T16:11:40.541Z,21.54
2023-03-29T16:14:43.510Z,21.55
2023-03-29T16:17:47.855Z,21.57
2023-03-29T16:20:50.890Z,21.57
2023-03-29T16:23:53.881Z,21.56
2023-03-29T16:26:58.501Z,21.57
2023-03-29T16:30:01.468Z,21.56
2023-03-29T16:33:08.193Z,21.56
2023-03-29T16:36:12.113Z,21.55
2023-03-29T16:39:15.871Z,21.55
2023-03-29T16:42:18.773Z,21.55
2023-03-29T16:45:21.728Z,21.56
2023-03-29T16:48:27.087Z,21.55
2023-03-29T16:51:30.074Z,21.56
2023-03-29T16:54:33.496Z,21.58
2023-03-29T16:57:36.889Z,21.59
2023-03-29T17:00:40.914Z,21.59
2023-03-29T17:03:45.449Z,21.60
2023-03-29T17:06:48.635Z,21.59
2023-03-29T17:09:51.762Z,21.58
2023-03-29T17:12:54.661Z,21.58
2023-03-29T17:15:58.171Z,21.57
2023-03-29T17:19:02.495Z,21.56
2023-03-29T17:22:05.646Z,21.56
2023-03-29T17:25:09.800Z,21.54
2023-03-29T17:28:12.863Z,21.54
2023-03-29T17:31:16.099Z,21.54
2023-03-29T17:34:20.612Z,21.52
2023-03-29T17:37:23.953Z,21.53
2023-03-29T17:40:27.162Z,21.53
2023-03-29T17:43:30.092Z,21.53
2023-03-29T17:46:33.033Z,21.53
2023-03-29T17:49:37.553Z,21.52
2023-03-29T17:52:41.257Z,21.52
2023-03-29T17:55:44.196Z,21.52
2023-03-29T17:58:48.982Z,21.52
2023-03-29T18:01:51.981Z,21.52
2023-03-29T18:04:56.304Z,21.52
2023-03-29T18:07:59.226Z,21.52
2023-03-29T18:11:08.792Z,21.52
2023-03-29T18:14:11.641Z,21.53
2023-03-29T18:17:14.568Z,21.54
2023-03-29T18:20:20.456Z,21.53
2023-03-29T18:23:23.523Z,21.54
2023-03-29T18:26:26.492Z,21.54
2023-03-29T18:29:29.482Z,21.55
2023-03-29T18:32:32.390Z,21.54
2023-03-29T18:35:37.000Z,21.54
2023-03-29T18:38:40.471Z,21.54
2023-03-29T18:41:43.506Z,21.55
2023-03-29T18:44:46.377Z,21.52
2023-03-29T18:47:50.841Z,21.54
2023-03-29T18:50:57.152Z,21.54
2023-03-29T18:54:00.120Z,21.53
2023-03-29T18:57:03.187Z,21.52
2023-03-29T19:00:11.914Z,21.53
2023-03-29T19:03:14.938Z,21.53
2023-03-29T19:06:19.447Z,21.53
2023-03-29T19:09:22.453Z,21.55
2023-03-29T19:12:25.582Z,21.54
2023-03-29T19:15:28.578Z,21.54
2023-03-29T19:18:31.532Z,21.54
2023-03-29T19:21:35.913Z,21.53
2023-03-29T19:24:38.939Z,21.54
2023-03-29T19:27:41.887Z,21.54
2023-03-29T19:30:44.918Z,21.53
2023-03-29T19:33:48.016Z,21.54
2023-03-29T19:36:53.506Z,21.54
2023-03-29T19:39:57.088Z,21.55
2023-03-29T19:43:00.236Z,21.53
2023-03-29T19:46:08.376Z,21.55
2023-03-29T19:49:13.498Z,21.55
2023-03-29T19:52:17.847Z,21.55
2023-03-29T19:55:20.802Z,21.55
2023-03-29T19:58:23.727Z,21.56
2023-03-29T20:01:27.201Z,21.56
2023-03-29T20:04:33.298Z,21.55
2023-03-29T20:07:37.784Z,21.57
2023-03-29T20:10:40.709Z,21.56
2023-03-29T20:13:45.037Z,21.54
2023-03-29T20:16:49.683Z,21.55
2023-03-29T20:19:53.940Z,21.54
2023-03-29T20:23:04.417Z,21.55
2023-03-29T20:26:08.441Z,21.56
2023-03-29T20:29:11.469Z,21.56
2023-03-29T20:32:14.486Z,21.57
2023-03-29T20:35:17.589Z,21.56
2023-03-29T20:38:21.964Z,21.56
2023-03-29T20:41:25.111Z,21.56
2023-03-29T20:44:28.617Z,21.55
2023-03-29T20:47:31.500Z,21.56
2023-03-29T20:50:34.547Z,21.56
2023-03-29T20:53:42.959Z,21.56
2023-03-29T20:56:45.940Z,21.55
2023-03-29T20:59:50.239Z,21.55
2023-03-29T21:02:55.308Z,21.55
2023-03-29T21:06:02.196Z,21.55
2023-03-29T21:09:06.590Z,21.55
2023-03-29T21:12:09.541Z,21.56
2023-03-29T21:15:13.432Z,21.56
2023-03-29T21:18:16.638Z,21.56
2023-03-29T21:21:19.621Z,21.56
2023-03-29T21:24:23.922Z,21.56
2023-03-29T21:27:26.802Z,21.54
2023-03-29T21:30:31.998Z,21.56
2023-03-29T21:33:35.820Z,21.55
2023-03-29T21:36:39.760Z,21.53
2023-03-29T21:39:44.027Z,21.55
2023-03-29T21:42:46.913Z,21.55
2023-03-29T21:45:50.441Z,21.55
2023-03-29T21:48:53.389Z,21.56
2023-03-29T21:51:56.872Z,21.58
2023-03-29T21:55:01.189Z,21.56
2023-03-29T21:58:04.673Z,21.56
2023-03-29T22:01:10.093Z,21.56
2023-03-29T22:04:19.805Z,21.56
2023-03-29T22:07:28.715Z,21.58
2023-03-29T22:10:33.066Z,21.56
2023-03-29T22:13:36.020Z,21.56
2023-03-29T22:16:39.005Z,21.58
2023-03-29T22:19:42.057Z,21.56
2023-03-29T22:22:49.731Z,21.55
2023-03-29T22:25:54.007Z,21.56
2023-03-29T22:28:57.857Z,21.54
2023-03-29T22:32:00.725Z,21.55
2023-03-29T22:35:04.143Z,21.54
2023-03-29T22:38:07.028Z,21.54
2023-03-29T22:41:11.758Z,21.55
2023-03-29T22:44:14.663Z,21.53
2023-03-29T22:47:17.611Z,21.53
2023-03-29T22:50:20.551Z,21.52
2023-03-29T22:53:23.573Z,21.52
2023-03-29T22:56:27.959Z,21.51
2023-03-29T22:59:30.957Z,21.51
2023-03-29T23:02:33.915Z,21.50
2023-03-29T23:05:36.903Z,21.49
2023-03-29T23:08:39.834Z,21.49
2023-03-29T23:11:44.127Z,21.49
2023-03-29T23:14:47.049Z,21.48
2023-03-29T23:17:49.983Z,21.49
2023-03-29T23:20:55.656Z,21.48
2023-03-29T23:23:58.568Z,21.47
2023-03-29T23:27:03.027Z,21.46
2023-03-29T23:30:08.847Z,21.44
2023-03-29T23:33:11.817Z,21.43
2023-03-29T23:36:16.918Z,21.42
2023-03-29T23:39:19.785Z,21.40
2023-03-29T23:42:24.025Z,21.39
2023-03-29T23:45:28.480Z,21.38
2023-03-29T23:48:32.306Z,21.37
2023-03-29T23:51:36.745Z,21.36
2023-03-29T23:54:39.686Z,21.36
2023-03-29T23:57:44.336Z,21.35
